createdAt,value
2022-08-01T00:00:52.022Z,97583.00
2022-08-01T00:03:19.287Z,97580.00
2022-08-01T00:05:47.712Z,97575.00
2022-08-01T00:08:14.810Z,97573.00
2022-08-01T00:10:42.070Z,97579.00
2022-08-01T00:13:09.164Z,97575.00
2022-08-01T00:15:37.973Z,97574.00
2022-08-01T00:18:05.103Z,97564.00
2022-08-01T00:20:32.470Z,97573.00
2022-08-01T00:22:59.605Z,97571.00
2022-08-01T00:25:33.887Z,97565.00
2022-08-01T00:28:04.278Z,97557.00
2022-08-01T00:30:32.124Z,97562.00
2022-08-01T00:32:59.443Z,97568.00
2022-08-01T00:35:26.722Z,97562.00
2022-08-01T00:37:53.890Z,97562.00
2022-08-01T00:40:21.392Z,97557.00
2022-08-01T00:42:48.465Z,97562.00
2022-08-01T00:45:15.794Z,97564.00
2022-08-01T00:47:43.069Z,97566.00
2022-08-01T00:50:11.677Z,97565.00
2022-08-01T00:52:41.799Z,97569.00
2022-08-01T00:55:14.896Z,97565.00
2022-08-01T00:58:05.768Z,97563.00
2022-08-01T01:00:30.673Z,97564.00
2022-08-01T01:03:00.907Z,97559.00
2022-08-01T01:05:28.369Z,97560.00
2022-08-01T01:08:09.059Z,97561.00
2022-08-01T01:10:49.929Z,97564.00
2022-08-01T01:13:28.392Z,97560.00
2022-08-01T01:16:08.199Z,97553.00
2022-08-01T01:18:51.379Z,97552.00
2022-08-01T01:21:18.918Z,97556.00
2022-08-01T01:24:02.335Z,97555.00
2022-08-01T01:27:16.621Z,97555.00
2022-08-01T01:29:58.559Z,97556.00
2022-08-01T01:32:40.302Z,97551.00
2022-08-01T01:35:15.202Z,97549.00
2022-08-01T01:37:44.795Z,97551.00
2022-08-01T01:40:13.272Z,97546.00
2022-08-01T01:42:42.875Z,97547.00
2022-08-01T01:45:10.789Z,97546.00
2022-08-01T01:47:40.237Z,97537.00
2022-08-01T01:50:10.209Z,97535.00
2022-08-01T01:52:41.180Z,97541.00
2022-08-01T01:55:10.234Z,97533.00
2022-08-01T01:57:42.095Z,97532.00
2022-08-01T02:00:12.655Z,97536.00
2022-08-01T02:02:40.889Z,97531.00
2022-08-01T02:05:12.380Z,97538.00
2022-08-01T02:07:41.220Z,97538.00
2022-08-01T02:10:09.889Z,97539.00
2022-08-01T02:12:40.711Z,97536.00
2022-08-01T02:15:10.428Z,97545.00
2022-08-01T02:17:44.984Z,97542.00
2022-08-01T02:20:13.257Z,97538.00
2022-08-01T02:26:09.678Z,97539.00
2022-08-01T02:28:49.357Z,97550.00
2022-08-01T02:31:22.106Z,97538.00
2022-08-01T02:34:03.380Z,97541.00
2022-08-01T02:36:35.260Z,97552.00
2022-08-01T02:39:07.857Z,97540.00
2022-08-01T02:41:42.189Z,97544.00
2022-08-01T02:44:12.843Z,97549.00
2022-08-01T02:46:54.254Z,97538.00
2022-08-01T02:49:23.852Z,97534.00
2022-08-01T02:51:52.760Z,97538.00
2022-08-01T02:54:22.817Z,97542.00
2022-08-01T02:56:51.900Z,97542.00
2022-08-01T02:59:26.564Z,97541.00
2022-08-01T03:01:56.871Z,97548.00
2022-08-01T03:04:26.051Z,97549.00
2022-08-01T03:06:56.522Z,97553.00
2022-08-01T03:09:24.455Z,97551.00
2022-08-01T03:11:53.818Z,97550.00
2022-08-01T03:14:23.543Z,97556.00
2022-08-01T03:16:54.459Z,97548.00
2022-08-01T03:19:24.616Z,97553.00
2022-08-01T03:21:53.200Z,97560.00
2022-08-01T03:24:23.077Z,97555.00
2022-08-01T03:26:52.037Z,97559.00
2022-08-01T03:29:25.805Z,97560.00
2022-08-01T03:31:53.990Z,97561.00
2022-08-01T03:34:24.412Z,97564.00
2022-08-01T03:37:31.961Z,97559.00
2022-08-01T03:40:23.809Z,97562.00
2022-08-01T03:42:59.675Z,97556.00
2022-08-01T03:45:33.751Z,97565.00
2022-08-01T03:48:06.554Z,97562.00
2022-08-01T03:50:37.231Z,97564.00
2022-08-01T03:53:07.534Z,97568.00
2022-08-01T03:55:38.456Z,97566.00
2022-08-01T03:58:09.752Z,97571.00
2022-08-01T04:00:41.778Z,97562.00
2022-08-01T04:03:10.234Z,97561.00
2022-08-01T04:05:37.807Z,97564.00
2022-08-01T04:08:05.435Z,97559.00
2022-08-01T04:10:32.882Z,97559.00
2022-08-01T04:13:00.951Z,97567.00
2022-08-01T04:15:28.386Z,97573.00
2022-08-01T04:17:55.619Z,97579.00
2022-08-01T04:20:23.022Z,97592.00
2022-08-01T04:22:50.469Z,97593.00
2022-08-01T04:25:28.053Z,97596.00
2022-08-01T04:27:56.549Z,97608.00
2022-08-01T04:30:35.167Z,97611.00
2022-08-01T04:33:06.720Z,97618.00
2022-08-01T04:36:01.364Z,97610.00
2022-08-01T04:38:28.458Z,97605.00
2022-08-01T04:40:57.957Z,97609.00
2022-08-01T04:43:25.300Z,97614.00
2022-08-01T04:45:53.290Z,97621.00
2022-08-01T04:48:22.889Z,97617.00
2022-08-01T04:50:51.104Z,97626.00
2022-08-01T04:53:23.085Z,97621.00
2022-08-01T04:55:50.796Z,97627.00
2022-08-01T04:58:18.954Z,97630.00
2022-08-01T05:00:48.010Z,97633.00
2022-08-01T05:03:15.413Z,97626.00
2022-08-01T05:05:42.661Z,97628.00
2022-08-01T05:08:09.856Z,97631.00
2022-08-01T05:10:37.162Z,97628.00
2022-08-01T05:13:04.353Z,97644.00
2022-08-01T05:15:32.042Z,97633.00
2022-08-01T05:17:59.462Z,97637.00
2022-08-01T05:20:26.658Z,97639.00
2022-08-01T05:22:53.871Z,97633.00
2022-08-01T05:25:54.360Z,97630.00
2022-08-01T05:28:08.252Z,97647.00
2022-08-01T05:30:35.700Z,97640.00
2022-08-01T05:33:02.917Z,97648.00
2022-08-01T05:35:48.381Z,97644.00
2022-08-01T05:38:17.094Z,97647.00
2022-08-01T05:40:45.472Z,97654.00
2022-08-01T05:43:12.629Z,97646.00
2022-08-01T05:45:39.988Z,97651.00
2022-08-01T05:48:07.254Z,97648.00
2022-08-01T05:50:35.114Z,97654.00
2022-08-01T05:53:02.312Z,97654.00
2022-08-01T05:55:29.638Z,97652.00
2022-08-01T05:57:56.837Z,97653.00
2022-08-01T06:00:24.203Z,97658.00
2022-08-01T06:02:51.281Z,97663.00
2022-08-01T06:05:18.539Z,97668.00
2022-08-01T06:07:45.734Z,97674.00
2022-08-01T06:10:12.904Z,97673.00
2022-08-01T06:12:40.227Z,97676.00
2022-08-01T06:15:08.782Z,97682.00
2022-08-01T06:17:36.063Z,97685.00
2022-08-01T06:20:04.541Z,97687.00
2022-08-01T06:22:31.780Z,97683.00
2022-08-01T06:25:00.030Z,97695.00
2022-08-01T06:27:27.210Z,97695.00
2022-08-01T06:29:54.639Z,97692.00
2022-08-01T06:32:26.433Z,97692.00
2022-08-01T06:34:56.422Z,97694.00
2022-08-01T06:37:24.341Z,97698.00
2022-08-01T06:39:51.678Z,97700.00
2022-08-01T06:42:19.078Z,97699.00
2022-08-01T06:44:46.679Z,97697.00
2022-08-01T06:47:13.994Z,97704.00
2022-08-01T06:49:41.323Z,97699.00
2022-08-01T06:52:08.997Z,97706.00
2022-08-01T06:54:36.801Z,97707.00
2022-08-01T06:57:06.916Z,97698.00
2022-08-01T06:59:34.596Z,97711.00
2022-08-01T07:02:02.644Z,97707.00
2022-08-01T07:04:30.306Z,97710.00
2022-08-01T07:06:58.298Z,97713.00
2022-08-01T07:09:25.850Z,97714.00
2022-08-01T07:11:54.317Z,97713.00
2022-08-01T07:14:23.301Z,97710.00
2022-08-01T07:16:51.134Z,97715.00
2022-08-01T07:19:19.051Z,97709.00
2022-08-01T07:21:46.504Z,97708.00
2022-08-01T07:24:17.253Z,97706.00
2022-08-01T07:26:53.306Z,97715.00
2022-08-01T07:29:26.101Z,97712.00
2022-08-01T07:31:58.535Z,97720.00
2022-08-01T07:34:27.148Z,97717.00
2022-08-01T07:36:54.687Z,97715.00
2022-08-01T07:39:22.356Z,97716.00
2022-08-01T07:42:06.378Z,97717.00
2022-08-01T07:44:36.435Z,97716.00
2022-08-01T07:47:04.324Z,97725.00
2022-08-01T07:49:33.900Z,97720.00
2022-08-01T07:52:05.151Z,97729.00
2022-08-01T07:54:34.576Z,97721.00
2022-08-01T07:57:03.682Z,97731.00
2022-08-01T07:59:31.207Z,97721.00
2022-08-01T08:01:58.659Z,97727.00
2022-08-01T08:04:26.916Z,97732.00
2022-08-01T08:06:54.727Z,97721.00
2022-08-01T08:09:22.491Z,97729.00
2022-08-01T08:11:49.882Z,97720.00
2022-08-01T08:14:20.858Z,97735.00
2022-08-01T08:16:48.458Z,97732.00
2022-08-01T08:19:15.702Z,97728.00
2022-08-01T08:21:43.219Z,97725.00
2022-08-01T08:24:25.915Z,97740.00
2022-08-01T08:26:59.685Z,97736.00
2022-08-01T08:29:30.726Z,97736.00
2022-08-01T08:31:59.390Z,97732.00
2022-08-01T08:34:28.899Z,97733.00
2022-08-01T08:36:57.407Z,97728.00
2022-08-01T08:39:27.782Z,97728.00
2022-08-01T08:41:55.092Z,97727.00
2022-08-01T08:44:22.360Z,97729.00
2022-08-01T08:46:52.443Z,97734.00
2022-08-01T08:49:26.674Z,97737.00
2022-08-01T08:51:54.935Z,97728.00
2022-08-01T08:54:30.992Z,97733.00
2022-08-01T08:57:01.444Z,97730.00
2022-08-01T08:59:29.519Z,97732.00
2022-08-01T09:01:58.376Z,97736.00
2022-08-01T09:04:27.508Z,97736.00
2022-08-01T09:06:55.936Z,97734.00
2022-08-01T09:09:24.692Z,97729.00
2022-08-01T09:11:57.609Z,97733.00
2022-08-01T09:14:31.142Z,97731.00
2022-08-01T09:17:07.787Z,97727.00
2022-08-01T09:19:48.813Z,97723.00
2022-08-01T09:22:22.135Z,97734.00
2022-08-01T09:25:08.686Z,97740.00
2022-08-01T09:27:44.236Z,97728.00
2022-08-01T09:30:23.657Z,97730.00
2022-08-01T09:33:11.512Z,97728.00
2022-08-01T09:35:57.370Z,97724.00
2022-08-01T09:38:29.443Z,97726.00
2022-08-01T09:41:01.386Z,97732.00
2022-08-01T09:43:32.105Z,97726.00
2022-08-01T09:46:03.418Z,97729.00
2022-08-01T09:48:32.927Z,97717.00
2022-08-01T09:51:07.349Z,97730.00
2022-08-01T09:53:52.027Z,97710.00
2022-08-01T09:56:22.867Z,97723.00
2022-08-01T09:58:56.210Z,97720.00
2022-08-01T10:01:27.255Z,97725.00
2022-08-01T10:04:15.216Z,97725.00
2022-08-01T10:06:46.729Z,97720.00
2022-08-01T10:09:15.424Z,97710.00
2022-08-01T10:11:44.998Z,97707.00
2022-08-01T10:14:18.173Z,97714.00
2022-08-01T10:16:53.223Z,97708.00
2022-08-01T10:19:33.806Z,97707.00
2022-08-01T10:22:02.525Z,97710.00
2022-08-01T10:24:32.039Z,97703.00
2022-08-01T10:27:09.178Z,97704.00
2022-08-01T10:30:14.076Z,97707.00
2022-08-01T10:32:51.338Z,97707.00
2022-08-01T10:35:45.796Z,97702.00
2022-08-01T10:38:10.583Z,97693.00
2022-08-01T10:40:45.352Z,97692.00
2022-08-01T10:43:21.525Z,97686.00
2022-08-01T10:45:51.378Z,97681.00
2022-08-01T10:48:44.164Z,97690.00
2022-08-01T10:51:17.743Z,97693.00
2022-08-01T10:53:56.969Z,97688.00
2022-08-01T10:56:48.961Z,97689.00
2022-08-01T10:59:51.173Z,97685.00
2022-08-01T11:02:32.309Z,97694.00
2022-08-01T11:05:11.210Z,97689.00
2022-08-01T11:07:47.951Z,97680.00
2022-08-01T11:10:28.860Z,97689.00
2022-08-01T11:12:56.057Z,97673.00
2022-08-01T11:15:31.162Z,97671.00
2022-08-01T11:18:01.795Z,97670.00
2022-08-01T11:20:34.556Z,97669.00
2022-08-01T11:23:05.162Z,97668.00
2022-08-01T11:26:05.329Z,97678.00
2022-08-01T11:28:30.263Z,97661.00
2022-08-01T11:31:11.904Z,97662.00
2022-08-01T11:33:46.715Z,97654.00
2022-08-01T11:36:15.527Z,97652.00
2022-08-01T11:38:59.014Z,97659.00
2022-08-01T11:41:38.952Z,97654.00
2022-08-01T11:44:20.860Z,97654.00
2022-08-01T11:47:11.630Z,97648.00
2022-08-01T11:49:49.081Z,97642.00
2022-08-01T11:52:29.671Z,97635.00
2022-08-01T11:55:03.730Z,97635.00
2022-08-01T11:57:36.219Z,97655.00
2022-08-01T12:00:18.976Z,97632.00
2022-08-01T12:02:48.184Z,97634.00
2022-08-01T12:05:24.734Z,97634.00
2022-08-01T12:07:53.692Z,97631.00
2022-08-01T12:10:23.979Z,97635.00
2022-08-01T12:12:58.658Z,97631.00
2022-08-01T12:15:31.306Z,97627.00
2022-08-01T12:18:01.676Z,97629.00
2022-08-01T12:20:35.982Z,97628.00
2022-08-01T12:23:10.208Z,97626.00
2022-08-01T12:25:40.902Z,97620.00
2022-08-01T12:28:10.260Z,97628.00
2022-08-01T12:30:40.154Z,97625.00
2022-08-01T12:33:10.653Z,97625.00
2022-08-01T12:35:39.733Z,97622.00
2022-08-01T12:38:15.752Z,97637.00
2022-08-01T12:40:46.020Z,97622.00
2022-08-01T12:43:27.408Z,97630.00
2022-08-01T12:45:58.551Z,97624.00
2022-08-01T12:48:27.341Z,97616.00
2022-08-01T12:50:58.646Z,97615.00
2022-08-01T12:53:27.007Z,97615.00
2022-08-01T12:56:07.487Z,97613.00
2022-08-01T12:58:37.046Z,97612.00
2022-08-01T13:01:08.271Z,97615.00
2022-08-01T13:03:36.661Z,97610.00
2022-08-01T13:06:13.619Z,97604.00
2022-08-01T13:08:41.394Z,97606.00
2022-08-01T13:11:19.192Z,97602.00
2022-08-01T13:13:51.940Z,97596.00
2022-08-01T13:16:30.202Z,97592.00
2022-08-01T13:19:01.932Z,97603.00
2022-08-01T13:21:52.444Z,97607.00
2022-08-01T13:24:26.966Z,97592.00
2022-08-01T13:27:04.661Z,97592.00
2022-08-01T13:29:46.372Z,97584.00
2022-08-01T13:32:29.750Z,97589.00
2022-08-01T13:35:09.139Z,97589.00
2022-08-01T13:37:42.476Z,97588.00
2022-08-01T13:40:11.754Z,97582.00
2022-08-01T13:42:39.614Z,97583.00
2022-08-01T13:45:14.607Z,97583.00
2022-08-01T13:48:12.524Z,97575.00
2022-08-01T13:50:31.661Z,97574.00
2022-08-01T13:52:58.824Z,97579.00
2022-08-01T13:55:27.950Z,97574.00
2022-08-01T13:57:57.192Z,97582.00
2022-08-01T14:00:24.502Z,97583.00
2022-08-01T14:02:51.653Z,97580.00
2022-08-01T14:05:19.099Z,97580.00
2022-08-01T14:07:48.681Z,97575.00
2022-08-01T14:10:19.936Z,97574.00
2022-08-01T14:12:51.089Z,97584.00
2022-08-01T14:15:37.369Z,97584.00
2022-08-01T14:18:08.021Z,97581.00
2022-08-01T14:20:38.389Z,97603.00
2022-08-01T14:23:08.614Z,97596.00
2022-08-01T14:26:02.661Z,97591.00
2022-08-01T14:28:29.496Z,97607.00
2022-08-01T14:30:58.247Z,97607.00
2022-08-01T14:33:25.880Z,97606.00
2022-08-01T14:36:06.756Z,97606.00
2022-08-01T14:38:40.643Z,97608.00
2022-08-01T14:41:07.857Z,97611.00
2022-08-01T14:43:34.965Z,97594.00
2022-08-01T14:46:04.564Z,97599.00
2022-08-01T14:48:32.685Z,97597.00
2022-08-01T14:51:03.715Z,97598.00
2022-08-01T14:53:35.918Z,97602.00
2022-08-01T14:56:07.923Z,97598.00
2022-08-01T14:58:35.238Z,97604.00
2022-08-01T15:01:02.823Z,97604.00
2022-08-01T15:03:30.022Z,97606.00
2022-08-01T15:05:57.313Z,97608.00
2022-08-01T15:08:24.526Z,97616.00
2022-08-01T15:10:52.390Z,97614.00
2022-08-01T15:13:19.493Z,97613.00
2022-08-01T15:15:46.729Z,97615.00
2022-08-01T15:18:14.041Z,97619.00
2022-08-01T15:20:41.893Z,97614.00
2022-08-01T15:23:09.170Z,97607.00
2022-08-01T15:25:40.361Z,97611.00
2022-08-01T15:28:13.093Z,97606.00
2022-08-01T15:30:40.854Z,97606.00
2022-08-01T15:33:08.536Z,97605.00
2022-08-01T15:35:36.245Z,97608.00
2022-08-01T15:38:03.791Z,97600.00
2022-08-01T15:40:35.436Z,97600.00
2022-08-01T15:43:03.774Z,97603.00
2022-08-01T15:45:47.363Z,97609.00
2022-08-01T15:48:15.200Z,97600.00
2022-08-01T15:50:42.449Z,97606.00
2022-08-01T15:53:09.756Z,97604.00
2022-08-01T15:55:38.474Z,97606.00
2022-08-01T15:58:06.142Z,97607.00
2022-08-01T16:00:39.416Z,97609.00
2022-08-01T16:03:10.685Z,97599.00
2022-08-01T16:05:43.567Z,97611.00
2022-08-01T16:08:13.167Z,97605.00
2022-08-01T16:10:40.561Z,97612.00
2022-08-01T16:13:08.050Z,97602.00
2022-08-01T16:15:37.635Z,97608.00
2022-08-01T16:18:12.652Z,97605.00
2022-08-01T16:20:45.061Z,97607.00
2022-08-01T16:23:14.977Z,97605.00
2022-08-01T16:25:43.846Z,97605.00
2022-08-01T16:28:11.284Z,97607.00
2022-08-01T16:30:56.095Z,97614.00
2022-08-01T16:33:42.910Z,97612.00
2022-08-01T16:36:16.600Z,97615.00
2022-08-01T16:38:45.092Z,97611.00
2022-08-01T16:41:19.406Z,97613.00
2022-08-01T16:43:53.745Z,97612.00
2022-08-01T16:46:26.936Z,97614.00
2022-08-01T16:48:54.955Z,97614.00
2022-08-01T16:51:22.246Z,97612.00
2022-08-01T16:53:49.443Z,97612.00
2022-08-01T16:56:16.643Z,97609.00
2022-08-01T16:58:43.825Z,97608.00
2022-08-01T17:01:59.032Z,97609.00
2022-08-01T17:04:01.545Z,97609.00
2022-08-01T17:06:30.330Z,97603.00
2022-08-01T17:08:57.590Z,97613.00
2022-08-01T17:11:24.933Z,97608.00
2022-08-01T17:13:52.350Z,97615.00
2022-08-01T17:16:20.172Z,97612.00
2022-08-01T17:18:47.286Z,97609.00
2022-08-01T17:21:15.004Z,97616.00
2022-08-01T17:23:42.117Z,97621.00
2022-08-01T17:26:09.416Z,97629.00
2022-08-01T17:28:36.569Z,97631.00
2022-08-01T17:31:03.947Z,97629.00
2022-08-01T17:33:45.421Z,97632.00
2022-08-01T17:36:17.856Z,97634.00
2022-08-01T17:38:45.151Z,97641.00
2022-08-01T17:41:12.256Z,97646.00
2022-08-01T17:43:39.612Z,97643.00
2022-08-01T17:46:06.908Z,97640.00
2022-08-01T17:48:34.203Z,97635.00
2022-08-01T17:51:01.380Z,97642.00
2022-08-01T17:53:28.791Z,97634.00
2022-08-01T17:55:58.801Z,97641.00
2022-08-01T17:58:49.102Z,97645.00
2022-08-01T18:01:16.959Z,97656.00
2022-08-01T18:03:45.339Z,97659.00
2022-08-01T18:06:14.463Z,97661.00
2022-08-01T18:08:44.023Z,97654.00
2022-08-01T18:11:11.685Z,97653.00
2022-08-01T18:13:40.780Z,97654.00
2022-08-01T18:16:11.279Z,97654.00
2022-08-01T18:18:39.224Z,97648.00
2022-08-01T18:21:08.043Z,97648.00
2022-08-01T18:23:36.253Z,97643.00
2022-08-01T18:26:07.616Z,97659.00
2022-08-01T18:28:41.778Z,97652.00
2022-08-01T18:31:16.717Z,97657.00
2022-08-01T18:33:44.581Z,97660.00
2022-08-01T18:36:17.784Z,97657.00
2022-08-01T18:39:00.056Z,97650.00
2022-08-01T18:41:27.329Z,97647.00
2022-08-01T18:44:07.630Z,97652.00
2022-08-01T18:46:39.424Z,97652.00
2022-08-01T18:49:09.487Z,97658.00
2022-08-01T18:51:42.963Z,97654.00
2022-08-01T18:54:12.231Z,97656.00
2022-08-01T18:56:39.417Z,97659.00
2022-08-01T18:59:06.878Z,97661.00
2022-08-01T19:01:34.265Z,97657.00
2022-08-01T19:04:01.850Z,97669.00
2022-08-01T19:06:29.071Z,97674.00
2022-08-01T19:09:01.859Z,97683.00
2022-08-01T19:11:34.674Z,97682.00
2022-08-01T19:14:03.322Z,97682.00
2022-08-01T19:16:31.239Z,97685.00
2022-08-01T19:18:58.874Z,97689.00
2022-08-01T19:21:26.580Z,97691.00
2022-08-01T19:24:12.498Z,97696.00
2022-08-01T19:26:51.197Z,97699.00
2022-08-01T19:29:35.644Z,97704.00
2022-08-01T19:32:06.920Z,97699.00
2022-08-01T19:34:42.562Z,97702.00
2022-08-01T19:37:10.274Z,97705.00
2022-08-01T19:39:37.710Z,97706.00
2022-08-01T19:42:05.667Z,97707.00
2022-08-01T19:44:33.959Z,97708.00
2022-08-01T19:47:02.052Z,97715.00
2022-08-01T19:49:29.530Z,97719.00
2022-08-01T19:52:03.844Z,97715.00
2022-08-01T19:54:40.363Z,97721.00
2022-08-01T19:57:09.076Z,97712.00
2022-08-01T19:59:37.130Z,97721.00
2022-08-01T20:02:06.311Z,97723.00
2022-08-01T20:04:34.657Z,97723.00
2022-08-01T20:07:03.352Z,97732.00
2022-08-01T20:09:32.055Z,97733.00
2022-08-01T20:11:59.350Z,97735.00
2022-08-01T20:14:27.684Z,97748.00
2022-08-01T20:16:56.333Z,97737.00
2022-08-01T20:19:25.740Z,97731.00
2022-08-01T20:22:04.601Z,97741.00
2022-08-01T20:24:47.988Z,97743.00
2022-08-01T20:27:15.854Z,97742.00
2022-08-01T20:29:45.173Z,97749.00
2022-08-01T20:32:13.208Z,97741.00
2022-08-01T20:34:48.848Z,97747.00
2022-08-01T20:38:03.293Z,97750.00
2022-08-01T20:40:12.360Z,97753.00
2022-08-01T20:42:40.406Z,97752.00
2022-08-01T20:45:07.977Z,97752.00
2022-08-01T20:47:39.762Z,97743.00
2022-08-01T20:50:26.896Z,97752.00
2022-08-01T20:53:13.678Z,97749.00
2022-08-01T20:55:43.910Z,97752.00
2022-08-01T20:58:16.501Z,97751.00
2022-08-01T21:00:45.659Z,97747.00
2022-08-01T21:03:26.390Z,97751.00
2022-08-01T21:06:11.767Z,97749.00
2022-08-01T21:08:44.860Z,97754.00
2022-08-01T21:11:21.313Z,97751.00
2022-08-01T21:13:51.068Z,97752.00
2022-08-01T21:16:28.070Z,97746.00
2022-08-01T21:19:20.507Z,97750.00
2022-08-01T21:22:20.018Z,97766.00
2022-08-01T21:25:04.411Z,97758.00
2022-08-01T21:27:34.763Z,97767.00
2022-08-01T21:30:09.050Z,97758.00
2022-08-01T21:32:37.702Z,97759.00
2022-08-01T21:35:15.939Z,97754.00
2022-08-01T21:37:51.830Z,97755.00
2022-08-01T21:40:22.853Z,97761.00
2022-08-01T21:42:53.393Z,97760.00
2022-08-01T21:45:24.712Z,97759.00
2022-08-01T21:47:52.630Z,97768.00
2022-08-01T21:50:20.595Z,97767.00
2022-08-01T21:52:59.278Z,97767.00
2022-08-01T21:55:51.750Z,97770.00
2022-08-01T21:58:39.109Z,97781.00
2022-08-01T22:01:53.147Z,97772.00
2022-08-01T22:04:43.664Z,97774.00
2022-08-01T22:07:15.095Z,97768.00
2022-08-01T22:09:48.828Z,97773.00
2022-08-01T22:12:18.385Z,97768.00
2022-08-01T22:14:49.894Z,97760.00
2022-08-01T22:17:26.270Z,97765.00
2022-08-01T22:19:55.318Z,97760.00
2022-08-01T22:22:50.652Z,97747.00
2022-08-01T22:25:12.257Z,97750.00
2022-08-01T22:28:08.096Z,97756.00
2022-08-01T22:30:29.462Z,97749.00
2022-08-01T22:33:15.350Z,97748.00
2022-08-01T22:35:50.436Z,97753.00
2022-08-01T22:38:20.301Z,97755.00
2022-08-01T22:41:14.701Z,97756.00
2022-08-01T22:43:56.836Z,97759.00
2022-08-01T22:46:54.476Z,97760.00
2022-08-01T22:49:54.289Z,97766.00
2022-08-01T22:52:29.146Z,97773.00
2022-08-01T22:55:09.396Z,97782.00
2022-08-01T22:57:50.709Z,97781.00
2022-08-01T23:00:18.676Z,97775.00
2022-08-01T23:02:54.634Z,97782.00
2022-08-01T23:05:25.455Z,97783.00
2022-08-01T23:07:55.551Z,97780.00
2022-08-01T23:10:26.167Z,97774.00
2022-08-01T23:12:55.745Z,97785.00
2022-08-01T23:15:25.121Z,97788.00
2022-08-01T23:17:52.982Z,97800.00
2022-08-01T23:20:20.234Z,97792.00
2022-08-01T23:22:48.133Z,97796.00
2022-08-01T23:25:17.318Z,97800.00
2022-08-01T23:27:51.718Z,97799.00
2022-08-01T23:30:34.895Z,97808.00
2022-08-01T23:33:02.361Z,97804.00
2022-08-01T23:35:30.644Z,97815.00
2022-08-01T23:38:02.794Z,97811.00
2022-08-01T23:40:32.565Z,97814.00
2022-08-01T23:43:01.439Z,97823.00
2022-08-01T23:45:36.129Z,97825.00
2022-08-01T23:48:16.383Z,97824.00
2022-08-01T23:50:44.000Z,97821.00
2022-08-01T23:53:11.263Z,97828.00
2022-08-01T23:55:40.576Z,97827.00
2022-08-01T23:58:10.777Z,97817.00
